Gargrave, United Kingdom
Current Conditions -  °F | °C
As of 10:20 AM on Thursday 18 Dec 2014 (Local Time) from EGNM Reporting Station
Drizzle Drizzle  
Wind Chill: 52°   Ceiling: 800
Heat Index: 52°   Visibility: 4mi
Dew Point: 50°   Wind: 18mph
Humidity: 94%   Direction: 230°SW
Pressure: 29.5"   Gusts: 32mph
Location:  53.98°N, 2.1°W
Report Text: EGNM 181020Z 23016G28KT 200V260 7000 -DZ SCT006 BKN008 11/10 Q0999
Loading
Personal Weather Stations






























Interactive Weather Map New forecast layout! Learn more

10-Day Weather Forecast

Advertisements
Track Severe Weather on mobile